createdAt,value
2022-08-21T00:01:44.385Z,74863.88
2022-08-21T00:04:14.522Z,74876.22
2022-08-21T00:06:48.646Z,74888.53
2022-08-21T00:09:16.630Z,74890.59
2022-08-21T00:11:44.122Z,74874.16
2022-08-21T00:14:11.696Z,74884.44
2022-08-21T00:16:39.664Z,74878.25
2022-08-21T00:19:07.300Z,74878.25
2022-08-21T00:21:35.500Z,74880.31
2022-08-21T00:24:03.007Z,74870.03
2022-08-21T00:26:30.328Z,74890.59
2022-08-21T00:28:58.387Z,74888.53
2022-08-21T00:31:26.462Z,74907.03
2022-08-21T00:34:00.639Z,74923.47
2022-08-21T00:36:29.136Z,74904.97
2022-08-21T00:38:56.964Z,74886.47
2022-08-21T00:41:36.983Z,74886.47
2022-08-21T00:44:07.996Z,74894.69
2022-08-21T00:46:35.968Z,74886.47
2022-08-21T00:49:03.779Z,74882.38
2022-08-21T00:51:42.711Z,74890.59
2022-08-21T00:54:18.087Z,74898.81
2022-08-21T00:56:47.930Z,74902.91
2022-08-21T00:59:17.309Z,74925.53
2022-08-21T01:01:44.667Z,74915.25
2022-08-21T01:04:12.492Z,74902.91
2022-08-21T01:06:39.901Z,74915.25
2022-08-21T01:09:07.172Z,74911.13
2022-08-21T01:11:34.457Z,74902.91
2022-08-21T01:14:01.941Z,74915.25
2022-08-21T01:16:29.279Z,74917.31
2022-08-21T01:18:56.646Z,74913.19
2022-08-21T01:21:28.241Z,74902.91
2022-08-21T01:23:56.486Z,74907.03
2022-08-21T01:26:31.212Z,74915.25
2022-08-21T01:29:26.608Z,74925.53
2022-08-21T01:31:53.911Z,74915.25
2022-08-21T01:34:21.542Z,74927.56
2022-08-21T01:36:49.222Z,74923.47
2022-08-21T01:39:16.896Z,74931.69
2022-08-21T01:41:44.164Z,74927.56
2022-08-21T01:44:12.173Z,74921.41
2022-08-21T01:46:39.486Z,74927.56
2022-08-21T01:49:06.847Z,74919.34
2022-08-21T01:51:34.168Z,74944.00
2022-08-21T01:54:01.443Z,74927.56
2022-08-21T01:56:28.982Z,74927.56
2022-08-21T01:58:56.344Z,74927.56
2022-08-21T02:01:23.763Z,74960.44
2022-08-21T02:03:51.100Z,74952.22
2022-08-21T02:06:19.062Z,74960.44
2022-08-21T02:08:47.277Z,74952.22
2022-08-21T02:11:14.805Z,74952.22
2022-08-21T02:13:42.058Z,74944.00
2022-08-21T02:16:09.621Z,74941.97
2022-08-21T02:18:37.077Z,74960.44
2022-08-21T02:21:04.636Z,74956.34
2022-08-21T02:23:32.226Z,74962.50
2022-08-21T02:26:00.181Z,74960.44
2022-08-21T02:28:27.833Z,74964.56
2022-08-21T02:30:55.492Z,74968.66
2022-08-21T02:33:23.108Z,74978.94
2022-08-21T02:35:50.917Z,74978.94
2022-08-21T02:38:23.141Z,74972.78
2022-08-21T02:40:51.459Z,74976.88
2022-08-21T02:43:19.639Z,74993.31
2022-08-21T02:45:47.130Z,74997.44
2022-08-21T02:48:16.646Z,74993.31
2022-08-21T02:50:49.234Z,74993.31
2022-08-21T02:53:17.638Z,75001.53
2022-08-21T02:55:46.038Z,75013.88
2022-08-21T02:58:13.851Z,75013.88
2022-08-21T03:00:41.159Z,74997.44
2022-08-21T03:03:08.518Z,75001.53
2022-08-21T03:05:36.178Z,74989.22
2022-08-21T03:08:03.885Z,74987.16
2022-08-21T03:10:32.109Z,74976.88
2022-08-21T03:12:59.547Z,74976.88
2022-08-21T03:15:27.432Z,74993.31
2022-08-21T03:17:55.593Z,74985.09
2022-08-21T03:20:24.803Z,74985.09
2022-08-21T03:22:53.542Z,74981.00
2022-08-21T03:25:28.323Z,74987.16
2022-08-21T03:28:19.418Z,74989.22
2022-08-21T03:30:47.634Z,75005.66
2022-08-21T03:33:15.641Z,74997.44
2022-08-21T03:35:47.776Z,74985.09
2022-08-21T03:38:15.027Z,74985.09
2022-08-21T03:40:43.212Z,74993.31
2022-08-21T03:43:10.837Z,74976.88
2022-08-21T03:45:38.657Z,74968.66
2022-08-21T03:48:06.626Z,74981.00
2022-08-21T03:50:40.994Z,74981.00
2022-08-21T03:53:16.469Z,74976.88
2022-08-21T03:55:49.407Z,74985.09
2022-08-21T03:58:18.008Z,74972.78
2022-08-21T04:00:50.195Z,74974.84
2022-08-21T04:03:17.776Z,74954.28
2022-08-21T04:05:46.860Z,74939.91
2022-08-21T04:08:15.415Z,74956.34
2022-08-21T04:10:43.435Z,74968.66
2022-08-21T04:13:13.209Z,74948.13
2022-08-21T04:15:41.794Z,74952.22
2022-08-21T04:18:09.534Z,74941.97
2022-08-21T04:20:37.549Z,74915.25
2022-08-21T04:23:04.891Z,74927.56
2022-08-21T04:25:32.789Z,74913.19
2022-08-21T04:28:00.121Z,74923.47
2022-08-21T04:30:28.777Z,74919.34
2022-08-21T04:32:56.909Z,74894.69
2022-08-21T04:35:24.954Z,74886.47
2022-08-21T04:37:52.306Z,74886.47
2022-08-21T04:40:20.136Z,74886.47
2022-08-21T04:42:53.367Z,74859.78
2022-08-21T04:45:23.645Z,74861.81
2022-08-21T04:47:55.527Z,74882.38
2022-08-21T04:50:29.582Z,74857.72
2022-08-21T04:52:57.003Z,74861.81
2022-08-21T04:55:24.674Z,74849.50
2022-08-21T04:57:54.522Z,74857.72
2022-08-21T05:00:21.988Z,74857.72
2022-08-21T05:02:49.756Z,74868.00
2022-08-21T05:05:17.174Z,74845.38
2022-08-21T05:07:45.675Z,74841.28
2022-08-21T05:10:14.861Z,74828.94
2022-08-21T05:12:43.044Z,74804.31
2022-08-21T05:15:13.273Z,74796.09
2022-08-21T05:17:42.041Z,74816.63
2022-08-21T05:20:10.791Z,74802.25
2022-08-21T05:22:38.770Z,74779.66
2022-08-21T05:25:10.202Z,74748.81
2022-08-21T05:27:42.973Z,74759.09
2022-08-21T05:30:11.024Z,74746.78
2022-08-21T05:32:39.012Z,74736.50
2022-08-21T05:35:06.911Z,74722.13
2022-08-21T05:37:35.097Z,74695.41
2022-08-21T05:40:20.257Z,74685.13
2022-08-21T05:42:55.393Z,74693.34
2022-08-21T05:45:41.309Z,74685.13
2022-08-21T05:48:13.167Z,74656.38
2022-08-21T05:50:40.576Z,74672.81
2022-08-21T05:53:08.085Z,74656.38
2022-08-21T05:55:40.294Z,74668.69
2022-08-21T05:58:10.195Z,74672.81
2022-08-21T06:00:37.574Z,74668.69
2022-08-21T06:03:05.146Z,74664.59
2022-08-21T06:05:37.399Z,74668.69
2022-08-21T06:08:05.307Z,74685.13
2022-08-21T06:10:32.768Z,74664.59
2022-08-21T06:13:00.375Z,74654.31
2022-08-21T06:15:27.786Z,74629.66
2022-08-21T06:17:55.204Z,74613.22
2022-08-21T06:20:22.735Z,74598.84
2022-08-21T06:22:50.144Z,74594.75
2022-08-21T06:25:17.659Z,74561.88
2022-08-21T06:27:45.099Z,74553.66
2022-08-21T06:30:12.731Z,74512.56
2022-08-21T06:32:40.690Z,74465.31
2022-08-21T06:35:08.317Z,74446.81
2022-08-21T06:37:35.594Z,74442.72
2022-08-21T06:40:04.977Z,74409.84
2022-08-21T06:42:32.671Z,74383.13
2022-08-21T06:44:59.951Z,74360.53
2022-08-21T06:47:27.234Z,74337.94
2022-08-21T06:49:54.505Z,74352.31
2022-08-21T06:52:21.777Z,74331.78
2022-08-21T06:54:49.185Z,74337.94
2022-08-21T06:57:16.483Z,74329.72
2022-08-21T06:59:43.765Z,74307.13
2022-08-21T07:02:11.165Z,74286.56
2022-08-21T07:04:38.419Z,74278.34
2022-08-21T07:07:05.954Z,74261.94
2022-08-21T07:09:34.072Z,74257.81
2022-08-21T07:12:01.746Z,74247.53
2022-08-21T07:14:29.086Z,74224.94
2022-08-21T07:16:56.875Z,74220.84
2022-08-21T07:19:24.655Z,74208.50
2022-08-21T07:21:52.085Z,74187.97
2022-08-21T07:24:19.538Z,74163.31
2022-08-21T07:26:46.831Z,74151.00
2022-08-21T07:29:14.256Z,74140.72
2022-08-21T07:31:41.619Z,74124.28
2022-08-21T07:34:09.367Z,74103.75
2022-08-21T07:36:37.693Z,74085.25
2022-08-21T07:39:06.553Z,74048.28
2022-08-21T07:41:35.417Z,74035.97
2022-08-21T07:44:03.111Z,74035.97
2022-08-21T07:46:30.498Z,74027.75
2022-08-21T07:48:57.791Z,74019.53
2022-08-21T07:51:27.905Z,74044.19
2022-08-21T07:53:56.510Z,74050.34
2022-08-21T07:56:23.826Z,74023.63
2022-08-21T07:58:51.287Z,73974.34
2022-08-21T08:01:19.203Z,73966.13
2022-08-21T08:03:47.287Z,73937.38
2022-08-21T08:06:14.966Z,73949.69
2022-08-21T08:08:43.462Z,73953.78
2022-08-21T08:11:16.137Z,73941.47
2022-08-21T08:13:47.814Z,73962.00
2022-08-21T08:16:15.546Z,73959.97
2022-08-21T08:18:43.246Z,73935.31
2022-08-21T08:21:11.312Z,73904.50
2022-08-21T08:23:39.729Z,73904.50
2022-08-21T08:26:07.423Z,73890.13
2022-08-21T08:28:34.783Z,73883.97
2022-08-21T08:31:02.131Z,73863.41
2022-08-21T08:33:29.457Z,73818.22
2022-08-21T08:35:57.104Z,73812.06
2022-08-21T08:38:25.067Z,73777.16
2022-08-21T08:41:04.945Z,73760.72
2022-08-21T08:43:33.359Z,73744.28
2022-08-21T08:46:03.804Z,73723.75
2022-08-21T08:48:58.205Z,73699.09
2022-08-21T08:51:32.414Z,73699.09
2022-08-21T08:54:05.651Z,73670.34
2022-08-21T08:56:34.690Z,73604.63
2022-08-21T08:59:08.326Z,73538.91
2022-08-21T09:01:39.042Z,73547.09
2022-08-21T09:04:06.741Z,73464.97
2022-08-21T09:06:51.876Z,73442.38
2022-08-21T09:09:25.311Z,73421.81
2022-08-21T09:12:07.487Z,73243.16
2022-08-21T09:14:50.114Z,73161.00
2022-08-21T09:17:38.559Z,73181.53
2022-08-21T09:20:30.575Z,73064.50
2022-08-21T09:23:32.515Z,72885.84
2022-08-21T09:26:12.986Z,72832.44
2022-08-21T09:28:42.193Z,72758.53
2022-08-21T09:31:17.768Z,72754.41
2022-08-21T09:33:45.142Z,72696.91
2022-08-21T09:36:12.491Z,72816.00
2022-08-21T09:38:39.787Z,72772.91
2022-08-21T09:41:09.795Z,72803.69
2022-08-21T09:43:37.826Z,72762.63
2022-08-21T09:46:13.555Z,72910.47
2022-08-21T09:48:42.915Z,72912.53
2022-08-21T09:51:21.520Z,72844.75
2022-08-21T09:54:19.716Z,72791.38
2022-08-21T09:57:28.302Z,72779.06
2022-08-21T09:59:56.095Z,72774.94
2022-08-21T10:02:29.252Z,72844.75
2022-08-21T10:05:17.331Z,72902.25
2022-08-21T10:07:44.741Z,72754.41
2022-08-21T10:10:31.374Z,72861.19
2022-08-21T10:13:07.590Z,73072.69
2022-08-21T10:15:40.959Z,73169.22
2022-08-21T10:18:16.842Z,73317.09
2022-08-21T10:20:59.242Z,73331.47
2022-08-21T10:23:37.352Z,73415.66
2022-08-21T10:26:14.542Z,73243.16
2022-08-21T10:29:16.363Z,73072.69
2022-08-21T10:31:51.170Z,72881.72
2022-08-21T10:34:38.179Z,72972.06
2022-08-21T10:37:19.786Z,72998.78
2022-08-21T10:40:12.084Z,72885.84
2022-08-21T10:42:42.914Z,72922.78
2022-08-21T10:45:19.842Z,73033.69
2022-08-21T10:47:58.436Z,72992.63
2022-08-21T10:50:33.029Z,72848.88
2022-08-21T10:53:06.361Z,72869.41
2022-08-21T10:55:44.499Z,72939.22
2022-08-21T10:58:15.350Z,72795.47
2022-08-21T11:01:02.159Z,72738.00
2022-08-21T11:03:44.805Z,72738.00
2022-08-21T11:06:20.490Z,72686.66
2022-08-21T11:08:52.320Z,72762.63
2022-08-21T11:11:35.770Z,72742.09
2022-08-21T11:14:17.050Z,72725.66
2022-08-21T11:16:59.615Z,72602.47
2022-08-21T11:19:31.617Z,72606.56
2022-08-21T11:22:29.851Z,72688.72
2022-08-21T11:25:12.267Z,72637.38
2022-08-21T11:27:46.214Z,72639.44
2022-08-21T11:30:14.246Z,72676.38
2022-08-21T11:32:58.710Z,72696.91
2022-08-21T11:35:52.422Z,72754.41
2022-08-21T11:38:36.380Z,72832.44
2022-08-21T11:41:19.288Z,72779.06
2022-08-21T11:43:54.391Z,72797.53
2022-08-21T11:46:37.458Z,72680.50
2022-08-21T11:49:19.626Z,72577.81
2022-08-21T11:52:11.178Z,72692.81
2022-08-21T11:54:44.420Z,72742.09
2022-08-21T11:57:33.599Z,72793.44
2022-08-21T12:00:12.089Z,72787.28
2022-08-21T12:02:44.468Z,72733.88
2022-08-21T12:05:23.041Z,72678.44
2022-08-21T12:08:13.633Z,72573.72
2022-08-21T12:10:48.567Z,72524.44
2022-08-21T12:13:39.803Z,72549.09
2022-08-21T12:16:13.631Z,72577.81
2022-08-21T12:18:42.241Z,72491.59
2022-08-21T12:21:20.880Z,72631.22
2022-08-21T12:24:14.275Z,72586.03
2022-08-21T12:26:56.270Z,72495.69
2022-08-21T12:29:25.265Z,72508.03
2022-08-21T12:32:11.891Z,72635.31
2022-08-21T12:35:06.118Z,72701.03
2022-08-21T12:37:45.388Z,72651.75
2022-08-21T12:40:22.196Z,72606.56
2022-08-21T12:42:58.699Z,72659.97
2022-08-21T12:45:33.807Z,72627.09
2022-08-21T12:48:12.508Z,72602.47
2022-08-21T12:50:48.757Z,72643.53
2022-08-21T12:53:29.169Z,72421.78
2022-08-21T12:56:02.258Z,72315.03
2022-08-21T12:58:29.917Z,72417.69
2022-08-21T13:01:05.506Z,72430.00
2022-08-21T13:03:34.746Z,72405.34
2022-08-21T13:06:02.558Z,72464.91
2022-08-21T13:08:31.227Z,72479.28
2022-08-21T13:11:13.564Z,72516.22
2022-08-21T13:13:46.798Z,72522.38
2022-08-21T13:16:14.930Z,72577.81
2022-08-21T13:18:54.826Z,72579.88
2022-08-21T13:21:28.986Z,72596.31
2022-08-21T13:24:31.759Z,72571.66
2022-08-21T13:26:57.690Z,72508.03
2022-08-21T13:29:29.265Z,72473.13
2022-08-21T13:32:03.606Z,72536.75
2022-08-21T13:34:34.780Z,72637.38
2022-08-21T13:37:05.450Z,72766.72
2022-08-21T13:39:34.129Z,72715.41
2022-08-21T13:42:03.055Z,72598.34
2022-08-21T13:44:44.860Z,72647.63
2022-08-21T13:47:14.525Z,72682.53
2022-08-21T13:49:46.476Z,72686.66
2022-08-21T13:52:27.190Z,72848.88
2022-08-21T13:54:55.600Z,72889.94
2022-08-21T13:57:34.041Z,72910.47
2022-08-21T14:00:14.856Z,73037.78
2022-08-21T14:02:43.607Z,73025.47
2022-08-21T14:05:44.508Z,72945.38
2022-08-21T14:08:13.512Z,72846.81
2022-08-21T14:10:46.063Z,72830.38
2022-08-21T14:13:24.243Z,72873.50
2022-08-21T14:16:02.940Z,72978.25
2022-08-21T14:18:30.326Z,72982.34
2022-08-21T14:21:08.044Z,72967.97
2022-08-21T14:23:35.527Z,72918.69
2022-08-21T14:26:04.323Z,72988.50
2022-08-21T14:28:36.573Z,72943.31
2022-08-21T14:31:20.464Z,72910.47
2022-08-21T14:33:47.933Z,72955.66
2022-08-21T14:36:15.374Z,72902.25
2022-08-21T14:38:42.699Z,72943.31
2022-08-21T14:41:24.828Z,73002.88
2022-08-21T14:43:59.845Z,73015.19
2022-08-21T14:46:35.758Z,73037.78
2022-08-21T14:49:04.171Z,73004.94
2022-08-21T14:51:31.842Z,73013.16
2022-08-21T14:53:59.271Z,73056.28
2022-08-21T14:56:26.831Z,73025.47
2022-08-21T14:58:54.294Z,73132.25
2022-08-21T15:01:22.254Z,73136.38
2022-08-21T15:03:49.785Z,73261.63
2022-08-21T15:06:18.645Z,73337.63
2022-08-21T15:08:46.003Z,73419.78
2022-08-21T15:11:41.247Z,73413.59
2022-08-21T15:14:10.755Z,73349.94
2022-08-21T15:16:38.505Z,73360.22
2022-08-21T15:19:05.826Z,73333.50
2022-08-21T15:21:33.222Z,73304.75
2022-08-21T15:24:00.514Z,73345.84
2022-08-21T15:26:27.732Z,73397.19
2022-08-21T15:28:55.069Z,73444.41
2022-08-21T15:31:22.318Z,73479.34
2022-08-21T15:33:49.717Z,73522.47
2022-08-21T15:36:17.216Z,73559.44
2022-08-21T15:38:45.557Z,73563.53
2022-08-21T15:41:12.919Z,73582.03
2022-08-21T15:43:51.957Z,73621.06
2022-08-21T15:46:19.926Z,73612.84
2022-08-21T15:48:47.574Z,73625.16
2022-08-21T15:51:15.311Z,73645.69
2022-08-21T15:53:43.063Z,73678.56
2022-08-21T15:56:19.014Z,73692.94
2022-08-21T15:58:46.293Z,73699.09
2022-08-21T16:01:13.696Z,73731.97
2022-08-21T16:03:40.999Z,73744.28
2022-08-21T16:06:08.337Z,73816.19
2022-08-21T16:08:35.836Z,73805.91
2022-08-21T16:11:03.134Z,73842.88
2022-08-21T16:13:37.083Z,73842.88
2022-08-21T16:16:05.712Z,73851.09
2022-08-21T16:18:33.118Z,73867.53
2022-08-21T16:21:00.358Z,73879.84
2022-08-21T16:23:27.765Z,73883.97
2022-08-21T16:25:55.177Z,73894.22
2022-08-21T16:28:24.738Z,73892.19
2022-08-21T16:30:52.028Z,73875.75
2022-08-21T16:33:40.696Z,73892.19
2022-08-21T16:36:08.939Z,73912.72
2022-08-21T16:38:38.217Z,73904.50
2022-08-21T16:41:06.992Z,73929.16
2022-08-21T16:43:35.724Z,73949.69
2022-08-21T16:46:02.973Z,73962.00
2022-08-21T16:48:30.315Z,73953.78
2022-08-21T16:50:58.541Z,73966.13
2022-08-21T16:53:26.795Z,73953.78
2022-08-21T16:55:54.142Z,73966.13
2022-08-21T16:58:25.655Z,73970.22
2022-08-21T17:00:52.920Z,73996.94
2022-08-21T17:03:23.092Z,73999.00
2022-08-21T17:05:50.575Z,74007.22
2022-08-21T17:08:17.990Z,74007.22
2022-08-21T17:10:46.992Z,74019.53
2022-08-21T17:13:14.549Z,74048.28
2022-08-21T17:15:43.371Z,74064.72
2022-08-21T17:18:12.664Z,74042.13
2022-08-21T17:20:40.298Z,74035.97
2022-08-21T17:23:07.940Z,74035.97
2022-08-21T17:25:35.261Z,74023.63
2022-08-21T17:28:02.811Z,74035.97
2022-08-21T17:30:30.195Z,74031.84
2022-08-21T17:32:57.695Z,74056.50
2022-08-21T17:35:25.054Z,74048.28
2022-08-21T17:37:53.606Z,74072.94
2022-08-21T17:40:21.055Z,74077.03
2022-08-21T17:42:48.709Z,74068.81
2022-08-21T17:45:17.596Z,74079.09
2022-08-21T17:47:44.890Z,74064.72
2022-08-21T17:50:12.877Z,74077.03
2022-08-21T17:52:40.392Z,74068.81
2022-08-21T17:55:07.996Z,74068.81
2022-08-21T17:57:35.553Z,74077.03
2022-08-21T18:00:10.130Z,74093.47
2022-08-21T18:02:37.769Z,74093.47
2022-08-21T18:05:06.284Z,74101.69
2022-08-21T18:07:33.662Z,74103.75
2022-08-21T18:10:02.066Z,74105.81
2022-08-21T18:12:29.981Z,74111.97
2022-08-21T18:14:57.254Z,74097.59
2022-08-21T18:17:25.064Z,74095.53
2022-08-21T18:19:52.321Z,74105.81
2022-08-21T18:22:19.719Z,74093.47
2022-08-21T18:24:47.153Z,74114.03
2022-08-21T18:27:15.175Z,74118.13
2022-08-21T18:29:47.049Z,74099.63
2022-08-21T18:32:30.739Z,74085.25
2022-08-21T18:34:59.549Z,74101.69
2022-08-21T18:37:26.865Z,74132.50
2022-08-21T18:39:54.200Z,74097.59
2022-08-21T18:42:28.527Z,74116.06
2022-08-21T18:44:59.382Z,74122.25
2022-08-21T18:47:28.897Z,74130.44
2022-08-21T18:49:56.550Z,74111.97
2022-08-21T18:52:28.442Z,74122.25
2022-08-21T18:54:56.034Z,74105.81
2022-08-21T18:57:28.307Z,74114.03
2022-08-21T18:59:56.168Z,74138.66
2022-08-21T19:02:24.114Z,74118.13
2022-08-21T19:04:52.306Z,74118.13
2022-08-21T19:07:20.510Z,74101.69
2022-08-21T19:10:07.586Z,74097.59
2022-08-21T19:12:36.856Z,74126.34
2022-08-21T19:15:07.562Z,74103.75
2022-08-21T19:17:35.586Z,74120.19
2022-08-21T19:20:32.757Z,74132.50
2022-08-21T19:23:00.934Z,74146.88
2022-08-21T19:25:33.931Z,74134.56
2022-08-21T19:28:11.439Z,74140.72
2022-08-21T19:31:16.426Z,74169.47
2022-08-21T19:33:46.190Z,74146.88
2022-08-21T19:36:18.718Z,74183.88
2022-08-21T19:38:47.310Z,74179.75
2022-08-21T19:41:15.311Z,74175.66
2022-08-21T19:43:49.853Z,74165.38
2022-08-21T19:46:24.069Z,74163.31
2022-08-21T19:48:52.622Z,74200.28
2022-08-21T19:51:19.956Z,74175.66
2022-08-21T19:53:47.485Z,74196.19
2022-08-21T19:56:18.048Z,74200.28
2022-08-21T19:58:50.039Z,74208.50
2022-08-21T20:01:18.407Z,74212.63
2022-08-21T20:03:54.187Z,74216.72
2022-08-21T20:06:22.210Z,74204.41
2022-08-21T20:08:53.329Z,74214.69
2022-08-21T20:11:31.510Z,74212.63
2022-08-21T20:13:59.238Z,74237.28
2022-08-21T20:16:28.462Z,74216.72
2022-08-21T20:18:55.812Z,74233.16
2022-08-21T20:21:23.582Z,74229.06
2022-08-21T20:23:50.861Z,74210.56
2022-08-21T20:26:19.155Z,74200.28
2022-08-21T20:28:50.520Z,74208.50
2022-08-21T20:31:19.694Z,74196.19
2022-08-21T20:33:49.461Z,74179.75
2022-08-21T20:36:18.179Z,74187.97
2022-08-21T20:38:48.051Z,74173.59
2022-08-21T20:41:21.484Z,74167.44
2022-08-21T20:43:58.343Z,74163.31
2022-08-21T20:46:26.296Z,74161.28
2022-08-21T20:48:54.706Z,74161.28
2022-08-21T20:51:27.483Z,74163.31
2022-08-21T20:54:01.133Z,74163.31
2022-08-21T20:56:32.884Z,74165.38
2022-08-21T20:59:22.161Z,74161.28
2022-08-21T21:01:49.415Z,74171.53
2022-08-21T21:04:25.865Z,74183.88
2022-08-21T21:06:58.868Z,74175.66
2022-08-21T21:09:34.746Z,74187.97
2022-08-21T21:12:09.525Z,74175.66
2022-08-21T21:14:46.127Z,74187.97
2022-08-21T21:17:30.572Z,74177.69
2022-08-21T21:20:02.398Z,74185.91
2022-08-21T21:22:34.678Z,74183.88
2022-08-21T21:25:39.747Z,74183.88
2022-08-21T21:28:19.936Z,74200.28
2022-08-21T21:30:57.672Z,74183.88
2022-08-21T21:33:25.319Z,74183.88
2022-08-21T21:35:55.395Z,74196.19
2022-08-21T21:38:51.844Z,74187.97
2022-08-21T21:41:19.479Z,74198.25
2022-08-21T21:44:13.115Z,74200.28
2022-08-21T21:47:18.795Z,74206.47
2022-08-21T21:50:03.140Z,74204.41
2022-08-21T21:52:42.518Z,74208.50
2022-08-21T21:55:45.606Z,74208.50
2022-08-21T21:58:24.806Z,74212.63
2022-08-21T22:00:57.719Z,74210.56
2022-08-21T22:03:32.204Z,74220.84
2022-08-21T22:06:57.137Z,74220.84
2022-08-21T22:09:47.026Z,74237.28
2022-08-21T22:12:26.415Z,74229.06
2022-08-21T22:14:55.246Z,74227.00
2022-08-21T22:17:47.653Z,74231.09
2022-08-21T22:20:22.883Z,74233.16
2022-08-21T22:22:53.096Z,74257.81
2022-08-21T22:25:29.050Z,74249.59
2022-08-21T22:28:10.618Z,74253.72
2022-08-21T22:30:45.316Z,74249.59
2022-08-21T22:33:19.972Z,74239.31
2022-08-21T22:35:51.665Z,74253.72
2022-08-21T22:38:29.862Z,74253.72
2022-08-21T22:41:23.309Z,74268.09
2022-08-21T22:44:01.610Z,74253.72
2022-08-21T22:46:36.553Z,74249.59
2022-08-21T22:49:25.232Z,74249.59
2022-08-21T22:51:55.980Z,74249.59
2022-08-21T22:54:35.078Z,74251.66
2022-08-21T22:57:05.153Z,74255.75
2022-08-21T22:59:35.286Z,74249.59
2022-08-21T23:02:02.491Z,74261.94
2022-08-21T23:04:29.896Z,74266.03
2022-08-21T23:06:59.940Z,74259.88
2022-08-21T23:09:28.382Z,74261.94
2022-08-21T23:11:58.675Z,74263.97
2022-08-21T23:14:27.831Z,74270.16
2022-08-21T23:17:01.474Z,74278.34
2022-08-21T23:19:54.093Z,74274.25
2022-08-21T23:22:43.237Z,74286.56
2022-08-21T23:25:28.889Z,74294.78
2022-08-21T23:28:06.180Z,74290.69
2022-08-21T23:30:51.839Z,74298.91
2022-08-21T23:33:24.897Z,74303.00
2022-08-21T23:36:29.846Z,74286.56
2022-08-21T23:39:15.837Z,74282.47
2022-08-21T23:42:06.230Z,74274.25
2022-08-21T23:45:01.149Z,74282.47
2022-08-21T23:47:41.535Z,74294.78
2022-08-21T23:50:26.735Z,74292.75
2022-08-21T23:53:14.374Z,74298.91
2022-08-21T23:55:54.634Z,74292.75
2022-08-21T23:58:26.342Z,74311.22
